sensor_id;sensor_type;location;lat;lon;timestamp;P1;durP1;ratioP1;P2;durP2;ratioP2
58294;SDS011;45705;55.592;37.460;2023-07-29T00:00:59;4.57;;;3.90;;
58294;SDS011;45705;55.592;37.460;2023-07-29T00:03:27;10.38;;;4.28;;
58294;SDS011;45705;55.592;37.460;2023-07-29T00:05:53;9.32;;;4.03;;
58294;SDS011;45705;55.592;37.460;2023-07-29T00:08:19;6.78;;;4.28;;
58294;SDS011;45705;55.592;37.460;2023-07-29T00:10:44;9.32;;;4.28;;
58294;SDS011;45705;55.592;37.460;2023-07-29T00:13:10;8.90;;;4.15;;
58294;SDS011;45705;55.592;37.460;2023-07-29T00:15:36;7.80;;;3.78;;
58294;SDS011;45705;55.592;37.460;2023-07-29T00:18:02;4.30;;;3.90;;
58294;SDS011;45705;55.592;37.460;2023-07-29T00:20:28;9.18;;;4.40;;
58294;SDS011;45705;55.592;37.460;2023-07-29T00:22:53;7.22;;;4.25;;
58294;SDS011;45705;55.592;37.460;2023-07-29T00:25:20;6.05;;;4.30;;
58294;SDS011;45705;55.592;37.460;2023-07-29T00:27:47;7.55;;;4.70;;
58294;SDS011;45705;55.592;37.460;2023-07-29T00:30:13;8.73;;;4.55;;
58294;SDS011;45705;55.592;37.460;2023-07-29T00:32:38;6.18;;;4.15;;
58294;SDS011;45705;55.592;37.460;2023-07-29T00:35:05;5.93;;;4.13;;
58294;SDS011;45705;55.592;37.460;2023-07-29T00:37:32;6.03;;;4.40;;
58294;SDS011;45705;55.592;37.460;2023-07-29T00:39:58;6.53;;;4.70;;
58294;SDS011;45705;55.592;37.460;2023-07-29T00:42:24;6.80;;;4.65;;
58294;SDS011;45705;55.592;37.460;2023-07-29T00:44:50;6.35;;;4.88;;
58294;SDS011;45705;55.592;37.460;2023-07-29T00:47:16;7.57;;;4.47;;
58294;SDS011;45705;55.592;37.460;2023-07-29T00:49:45;4.85;;;4.15;;
58294;SDS011;45705;55.592;37.460;2023-07-29T00:54:38;5.45;;;4.50;;
58294;SDS011;45705;55.592;37.460;2023-07-29T00:57:06;7.40;;;4.60;;
58294;SDS011;45705;55.592;37.460;2023-07-29T00:59:34;8.32;;;4.88;;
58294;SDS011;45705;55.592;37.460;2023-07-29T01:02:01;5.15;;;4.38;;
58294;SDS011;45705;55.592;37.460;2023-07-29T01:04:30;9.27;;;5.22;;
58294;SDS011;45705;55.592;37.460;2023-07-29T01:06:58;5.72;;;4.97;;
58294;SDS011;45705;55.592;37.460;2023-07-29T01:09:47;8.02;;;4.60;;
58294;SDS011;45705;55.592;37.460;2023-07-29T01:12:54;6.78;;;4.07;;
58294;SDS011;45705;55.592;37.460;2023-07-29T01:15:28;7.80;;;4.40;;
58294;SDS011;45705;55.592;37.460;2023-07-29T01:21:04;4.82;;;3.80;;
58294;SDS011;45705;55.592;37.460;2023-07-29T01:23:33;4.68;;;4.10;;
58294;SDS011;45705;55.592;37.460;2023-07-29T01:26:00;5.60;;;4.38;;
58294;SDS011;45705;55.592;37.460;2023-07-29T01:28:26;6.80;;;3.92;;
58294;SDS011;45705;55.592;37.460;2023-07-29T01:30:57;6.95;;;4.50;;
58294;SDS011;45705;55.592;37.460;2023-07-29T01:33:25;8.00;;;4.65;;
58294;SDS011;45705;55.592;37.460;2023-07-29T01:36:00;4.80;;;4.22;;
58294;SDS011;45705;55.592;37.460;2023-07-29T01:38:38;4.97;;;3.63;;
58294;SDS011;45705;55.592;37.460;2023-07-29T01:41:07;7.60;;;5.07;;
58294;SDS011;45705;55.592;37.460;2023-07-29T01:43:34;8.32;;;4.22;;
58294;SDS011;45705;55.592;37.460;2023-07-29T01:46:09;6.72;;;4.40;;
58294;SDS011;45705;55.592;37.460;2023-07-29T01:48:38;5.78;;;4.75;;
58294;SDS011;45705;55.592;37.460;2023-07-29T01:51:05;8.23;;;4.95;;
58294;SDS011;45705;55.592;37.460;2023-07-29T01:53:31;8.55;;;4.90;;
58294;SDS011;45705;55.592;37.460;2023-07-29T01:55:57;6.45;;;4.80;;
58294;SDS011;45705;55.592;37.460;2023-07-29T01:58:24;7.35;;;5.07;;
58294;SDS011;45705;55.592;37.460;2023-07-29T02:00:50;6.40;;;4.55;;
58294;SDS011;45705;55.592;37.460;2023-07-29T02:03:16;7.07;;;5.32;;
58294;SDS011;45705;55.592;37.460;2023-07-29T02:05:42;9.48;;;4.95;;
58294;SDS011;45705;55.592;37.460;2023-07-29T02:08:09;6.28;;;4.60;;
58294;SDS011;45705;55.592;37.460;2023-07-29T02:10:36;5.53;;;4.75;;
58294;SDS011;45705;55.592;37.460;2023-07-29T02:13:02;8.23;;;4.75;;
58294;SDS011;45705;55.592;37.460;2023-07-29T02:15:29;5.25;;;4.47;;
58294;SDS011;45705;55.592;37.460;2023-07-29T02:17:55;10.00;;;4.72;;
58294;SDS011;45705;55.592;37.460;2023-07-29T02:20:21;5.65;;;4.97;;
58294;SDS011;45705;55.592;37.460;2023-07-29T02:22:48;6.10;;;4.78;;
58294;SDS011;45705;55.592;37.460;2023-07-29T02:25:14;9.20;;;4.45;;
58294;SDS011;45705;55.592;37.460;2023-07-29T02:27:40;8.60;;;4.90;;
58294;SDS011;45705;55.592;37.460;2023-07-29T02:30:06;10.10;;;5.35;;
58294;SDS011;45705;55.592;37.460;2023-07-29T02:32:35;6.45;;;5.28;;
58294;SDS011;45705;55.592;37.460;2023-07-29T02:35:01;11.07;;;5.82;;
58294;SDS011;45705;55.592;37.460;2023-07-29T02:37:29;8.82;;;6.05;;
58294;SDS011;45705;55.592;37.460;2023-07-29T02:39:54;8.52;;;5.53;;
58294;SDS011;45705;55.592;37.460;2023-07-29T02:42:20;10.18;;;5.50;;
58294;SDS011;45705;55.592;37.460;2023-07-29T02:44:46;8.82;;;5.50;;
58294;SDS011;45705;55.592;37.460;2023-07-29T02:47:12;6.22;;;5.30;;
58294;SDS011;45705;55.592;37.460;2023-07-29T02:49:38;8.07;;;5.18;;
58294;SDS011;45705;55.592;37.460;2023-07-29T02:52:03;7.05;;;5.60;;
58294;SDS011;45705;55.592;37.460;2023-07-29T02:54:30;10.20;;;5.63;;
58294;SDS011;45705;55.592;37.460;2023-07-29T02:56:56;9.30;;;5.65;;
58294;SDS011;45705;55.592;37.460;2023-07-29T02:59:22;8.90;;;6.00;;
58294;SDS011;45705;55.592;37.460;2023-07-29T03:01:48;7.95;;;5.93;;
58294;SDS011;45705;55.592;37.460;2023-07-29T03:04:14;11.48;;;6.68;;
58294;SDS011;45705;55.592;37.460;2023-07-29T03:06:40;9.40;;;6.50;;
58294;SDS011;45705;55.592;37.460;2023-07-29T03:09:06;12.15;;;7.50;;
58294;SDS011;45705;55.592;37.460;2023-07-29T03:11:32;10.07;;;7.95;;
58294;SDS011;45705;55.592;37.460;2023-07-29T03:13:57;10.15;;;7.15;;
58294;SDS011;45705;55.592;37.460;2023-07-29T03:16:24;9.93;;;7.10;;
58294;SDS011;45705;55.592;37.460;2023-07-29T03:18:53;9.75;;;7.13;;
58294;SDS011;45705;55.592;37.460;2023-07-29T03:21:19;15.50;;;7.13;;
58294;SDS011;45705;55.592;37.460;2023-07-29T03:23:45;10.27;;;7.50;;
58294;SDS011;45705;55.592;37.460;2023-07-29T03:26:11;11.95;;;7.60;;
58294;SDS011;45705;55.592;37.460;2023-07-29T03:28:39;7.80;;;6.63;;
58294;SDS011;45705;55.592;37.460;2023-07-29T03:31:08;12.43;;;7.97;;
58294;SDS011;45705;55.592;37.460;2023-07-29T03:33:36;7.78;;;6.95;;
58294;SDS011;45705;55.592;37.460;2023-07-29T03:36:01;9.07;;;6.05;;
58294;SDS011;45705;55.592;37.460;2023-07-29T03:38:27;10.45;;;6.47;;
58294;SDS011;45705;55.592;37.460;2023-07-29T03:40:53;8.88;;;5.90;;
58294;SDS011;45705;55.592;37.460;2023-07-29T03:43:19;6.88;;;5.97;;
58294;SDS011;45705;55.592;37.460;2023-07-29T03:45:45;10.98;;;6.63;;
58294;SDS011;45705;55.592;37.460;2023-07-29T03:48:12;8.82;;;5.53;;
58294;SDS011;45705;55.592;37.460;2023-07-29T03:50:38;8.07;;;5.43;;
58294;SDS011;45705;55.592;37.460;2023-07-29T03:53:05;7.25;;;5.05;;
58294;SDS011;45705;55.592;37.460;2023-07-29T03:55:32;6.35;;;5.15;;
58294;SDS011;45705;55.592;37.460;2023-07-29T03:57:59;7.38;;;5.32;;
58294;SDS011;45705;55.592;37.460;2023-07-29T04:00:27;9.98;;;5.72;;
58294;SDS011;45705;55.592;37.460;2023-07-29T04:02:54;7.68;;;5.35;;
58294;SDS011;45705;55.592;37.460;2023-07-29T04:05:20;9.10;;;5.72;;
58294;SDS011;45705;55.592;37.460;2023-07-29T04:07:47;7.28;;;5.68;;
58294;SDS011;45705;55.592;37.460;2023-07-29T04:10:14;9.27;;;5.57;;
58294;SDS011;45705;55.592;37.460;2023-07-29T04:12:41;7.25;;;5.28;;
58294;SDS011;45705;55.592;37.460;2023-07-29T04:15:09;7.82;;;5.80;;
58294;SDS011;45705;55.592;37.460;2023-07-29T04:17:35;6.88;;;5.70;;
58294;SDS011;45705;55.592;37.460;2023-07-29T04:20:09;6.72;;;5.65;;
58294;SDS011;45705;55.592;37.460;2023-07-29T04:22:35;8.75;;;6.03;;
58294;SDS011;45705;55.592;37.460;2023-07-29T04:25:01;8.93;;;5.88;;
58294;SDS011;45705;55.592;37.460;2023-07-29T04:27:30;7.40;;;6.40;;
58294;SDS011;45705;55.592;37.460;2023-07-29T04:29:56;8.77;;;5.82;;
58294;SDS011;45705;55.592;37.460;2023-07-29T04:32:22;8.30;;;5.82;;
58294;SDS011;45705;55.592;37.460;2023-07-29T04:34:48;7.53;;;5.90;;
58294;SDS011;45705;55.592;37.460;2023-07-29T04:37:14;12.18;;;5.93;;
58294;SDS011;45705;55.592;37.460;2023-07-29T04:39:40;8.57;;;5.88;;
58294;SDS011;45705;55.592;37.460;2023-07-29T04:42:05;9.60;;;6.13;;
58294;SDS011;45705;55.592;37.460;2023-07-29T04:44:31;10.13;;;5.60;;
58294;SDS011;45705;55.592;37.460;2023-07-29T04:46:57;11.55;;;5.60;;
58294;SDS011;45705;55.592;37.460;2023-07-29T04:49:23;7.72;;;5.78;;
58294;SDS011;45705;55.592;37.460;2023-07-29T04:51:48;7.55;;;5.78;;
58294;SDS011;45705;55.592;37.460;2023-07-29T04:54:14;7.20;;;6.00;;
58294;SDS011;45705;55.592;37.460;2023-07-29T04:56:40;11.02;;;5.53;;
58294;SDS011;45705;55.592;37.460;2023-07-29T04:59:07;10.80;;;7.05;;
58294;SDS011;45705;55.592;37.460;2023-07-29T05:01:35;12.00;;;7.05;;
58294;SDS011;45705;55.592;37.460;2023-07-29T05:04:01;9.57;;;8.32;;
58294;SDS011;45705;55.592;37.460;2023-07-29T05:06:28;16.00;;;8.73;;
58294;SDS011;45705;55.592;37.460;2023-07-29T05:08:56;7.80;;;6.93;;
58294;SDS011;45705;55.592;37.460;2023-07-29T05:13:50;6.93;;;5.30;;
58294;SDS011;45705;55.592;37.460;2023-07-29T05:16:16;11.38;;;6.63;;
58294;SDS011;45705;55.592;37.460;2023-07-29T05:18:42;11.43;;;6.10;;
58294;SDS011;45705;55.592;37.460;2023-07-29T05:21:08;9.70;;;6.55;;
58294;SDS011;45705;55.592;37.460;2023-07-29T05:23:34;8.75;;;6.20;;
58294;SDS011;45705;55.592;37.460;2023-07-29T05:25:59;6.13;;;5.50;;
58294;SDS011;45705;55.592;37.460;2023-07-29T05:28:25;11.18;;;5.78;;
58294;SDS011;45705;55.592;37.460;2023-07-29T05:30:51;10.02;;;6.15;;
58294;SDS011;45705;55.592;37.460;2023-07-29T05:33:18;8.75;;;5.90;;
58294;SDS011;45705;55.592;37.460;2023-07-29T05:35:44;11.13;;;6.10;;
58294;SDS011;45705;55.592;37.460;2023-07-29T05:38:11;9.03;;;5.80;;
58294;SDS011;45705;55.592;37.460;2023-07-29T05:40:37;9.93;;;5.55;;
58294;SDS011;45705;55.592;37.460;2023-07-29T05:43:03;8.05;;;5.25;;
58294;SDS011;45705;55.592;37.460;2023-07-29T05:45:29;10.60;;;5.35;;
58294;SDS011;45705;55.592;37.460;2023-07-29T05:47:57;7.88;;;5.35;;
58294;SDS011;45705;55.592;37.460;2023-07-29T05:50:23;8.45;;;5.45;;
58294;SDS011;45705;55.592;37.460;2023-07-29T05:52:49;12.88;;;5.65;;
58294;SDS011;45705;55.592;37.460;2023-07-29T05:55:16;6.00;;;4.88;;
58294;SDS011;45705;55.592;37.460;2023-07-29T05:57:41;15.82;;;5.82;;
58294;SDS011;45705;55.592;37.460;2023-07-29T06:00:07;7.75;;;5.07;;
58294;SDS011;45705;55.592;37.460;2023-07-29T06:02:42;10.45;;;5.68;;
58294;SDS011;45705;55.592;37.460;2023-07-29T06:05:12;9.68;;;5.38;;
58294;SDS011;45705;55.592;37.460;2023-07-29T06:07:38;8.63;;;5.80;;
58294;SDS011;45705;55.592;37.460;2023-07-29T06:10:04;8.55;;;5.53;;
58294;SDS011;45705;55.592;37.460;2023-07-29T06:12:30;8.15;;;5.97;;
58294;SDS011;45705;55.592;37.460;2023-07-29T06:14:56;9.20;;;5.90;;
58294;SDS011;45705;55.592;37.460;2023-07-29T06:17:22;10.43;;;6.10;;
58294;SDS011;45705;55.592;37.460;2023-07-29T06:19:48;12.05;;;5.80;;
58294;SDS011;45705;55.592;37.460;2023-07-29T06:22:14;8.68;;;6.03;;
58294;SDS011;45705;55.592;37.460;2023-07-29T06:24:40;7.90;;;5.85;;
58294;SDS011;45705;55.592;37.460;2023-07-29T06:27:05;11.13;;;6.07;;
58294;SDS011;45705;55.592;37.460;2023-07-29T06:29:31;10.65;;;6.03;;
58294;SDS011;45705;55.592;37.460;2023-07-29T06:31:58;10.82;;;6.20;;
58294;SDS011;45705;55.592;37.460;2023-07-29T06:34:24;8.60;;;5.80;;
58294;SDS011;45705;55.592;37.460;2023-07-29T06:36:50;10.50;;;5.60;;
58294;SDS011;45705;55.592;37.460;2023-07-29T06:39:15;9.93;;;5.72;;
58294;SDS011;45705;55.592;37.460;2023-07-29T06:41:41;13.88;;;6.22;;
58294;SDS011;45705;55.592;37.460;2023-07-29T06:44:08;7.20;;;6.10;;
58294;SDS011;45705;55.592;37.460;2023-07-29T06:46:35;11.35;;;6.32;;
58294;SDS011;45705;55.592;37.460;2023-07-29T06:49:01;9.57;;;5.82;;
58294;SDS011;45705;55.592;37.460;2023-07-29T06:53:57;10.60;;;6.60;;
58294;SDS011;45705;55.592;37.460;2023-07-29T06:56:23;9.30;;;4.97;;
58294;SDS011;45705;55.592;37.460;2023-07-29T06:58:49;8.65;;;5.15;;
58294;SDS011;45705;55.592;37.460;2023-07-29T07:01:15;8.25;;;5.35;;
58294;SDS011;45705;55.592;37.460;2023-07-29T07:03:40;10.10;;;5.05;;
58294;SDS011;45705;55.592;37.460;2023-07-29T07:06:06;8.45;;;5.53;;
58294;SDS011;45705;55.592;37.460;2023-07-29T07:08:32;8.43;;;5.57;;
58294;SDS011;45705;55.592;37.460;2023-07-29T07:10:58;8.10;;;5.18;;
58294;SDS011;45705;55.592;37.460;2023-07-29T07:13:23;7.32;;;5.72;;
58294;SDS011;45705;55.592;37.460;2023-07-29T07:15:49;8.15;;;5.70;;
58294;SDS011;45705;55.592;37.460;2023-07-29T07:18:15;9.68;;;5.47;;
58294;SDS011;45705;55.592;37.460;2023-07-29T07:20:41;6.50;;;5.20;;
58294;SDS011;45705;55.592;37.460;2023-07-29T07:23:06;9.77;;;5.70;;
58294;SDS011;45705;55.592;37.460;2023-07-29T07:25:36;9.20;;;5.32;;
58294;SDS011;45705;55.592;37.460;2023-07-29T07:28:02;10.07;;;4.97;;
58294;SDS011;45705;55.592;37.460;2023-07-29T07:30:28;8.82;;;5.38;;
58294;SDS011;45705;55.592;37.460;2023-07-29T07:32:54;8.85;;;4.95;;
58294;SDS011;45705;55.592;37.460;2023-07-29T07:35:20;5.93;;;4.55;;
58294;SDS011;45705;55.592;37.460;2023-07-29T07:37:46;9.07;;;4.28;;
58294;SDS011;45705;55.592;37.460;2023-07-29T07:40:12;5.22;;;4.10;;
58294;SDS011;45705;55.592;37.460;2023-07-29T07:42:38;6.63;;;4.50;;
58294;SDS011;45705;55.592;37.460;2023-07-29T07:45:04;5.97;;;4.07;;
58294;SDS011;45705;55.592;37.460;2023-07-29T07:47:32;6.63;;;4.32;;
58294;SDS011;45705;55.592;37.460;2023-07-29T07:49:57;4.20;;;3.80;;
58294;SDS011;45705;55.592;37.460;2023-07-29T07:52:23;4.85;;;3.70;;
58294;SDS011;45705;55.592;37.460;2023-07-29T07:54:52;5.88;;;4.40;;
58294;SDS011;45705;55.592;37.460;2023-07-29T07:57:19;3.70;;;3.30;;
58294;SDS011;45705;55.592;37.460;2023-07-29T07:59:46;4.20;;;3.40;;
58294;SDS011;45705;55.592;37.460;2023-07-29T08:02:12;3.65;;;2.80;;
58294;SDS011;45705;55.592;37.460;2023-07-29T08:04:38;3.83;;;3.00;;
58294;SDS011;45705;55.592;37.460;2023-07-29T08:07:04;3.75;;;3.10;;
58294;SDS011;45705;55.592;37.460;2023-07-29T08:09:30;4.80;;;3.55;;
58294;SDS011;45705;55.592;37.460;2023-07-29T08:11:56;4.32;;;3.25;;
58294;SDS011;45705;55.592;37.460;2023-07-29T08:14:22;5.13;;;3.30;;
58294;SDS011;45705;55.592;37.460;2023-07-29T08:16:47;5.57;;;3.00;;
58294;SDS011;45705;55.592;37.460;2023-07-29T08:19:13;6.95;;;4.05;;
58294;SDS011;45705;55.592;37.460;2023-07-29T08:21:39;5.30;;;3.42;;
58294;SDS011;45705;55.592;37.460;2023-07-29T08:24:05;6.95;;;3.38;;
58294;SDS011;45705;55.592;37.460;2023-07-29T08:26:32;5.72;;;3.92;;
58294;SDS011;45705;55.592;37.460;2023-07-29T08:28:58;5.30;;;3.38;;
58294;SDS011;45705;55.592;37.460;2023-07-29T08:31:23;5.70;;;3.50;;
58294;SDS011;45705;55.592;37.460;2023-07-29T08:34:51;4.63;;;3.60;;
58294;SDS011;45705;55.592;37.460;2023-07-29T08:37:17;8.73;;;4.05;;
58294;SDS011;45705;55.592;37.460;2023-07-29T08:39:43;9.95;;;5.10;;
58294;SDS011;45705;55.592;37.460;2023-07-29T08:42:09;6.30;;;4.35;;
58294;SDS011;45705;55.592;37.460;2023-07-29T08:44:41;9.25;;;4.68;;
58294;SDS011;45705;55.592;37.460;2023-07-29T08:47:08;5.25;;;4.00;;
58294;SDS011;45705;55.592;37.460;2023-07-29T08:49:35;8.20;;;4.28;;
58294;SDS011;45705;55.592;37.460;2023-07-29T08:52:02;6.17;;;4.33;;
58294;SDS011;45705;55.592;37.460;2023-07-29T08:54:29;9.60;;;4.32;;
58294;SDS011;45705;55.592;37.460;2023-07-29T08:56:55;7.90;;;4.32;;
58294;SDS011;45705;55.592;37.460;2023-07-29T08:59:25;7.75;;;4.82;;
58294;SDS011;45705;55.592;37.460;2023-07-29T09:01:53;11.75;;;5.65;;
58294;SDS011;45705;55.592;37.460;2023-07-29T09:04:22;13.25;;;5.60;;
58294;SDS011;45705;55.592;37.460;2023-07-29T09:06:50;10.30;;;6.20;;
58294;SDS011;45705;55.592;37.460;2023-07-29T09:09:16;11.68;;;5.10;;
58294;SDS011;45705;55.592;37.460;2023-07-29T09:11:43;14.85;;;5.22;;
58294;SDS011;45705;55.592;37.460;2023-07-29T09:14:09;10.45;;;5.57;;
58294;SDS011;45705;55.592;37.460;2023-07-29T09:16:35;11.63;;;5.57;;
58294;SDS011;45705;55.592;37.460;2023-07-29T09:19:02;9.85;;;5.88;;
58294;SDS011;45705;55.592;37.460;2023-07-29T09:21:29;12.68;;;5.78;;
58294;SDS011;45705;55.592;37.460;2023-07-29T09:23:55;12.15;;;5.60;;
58294;SDS011;45705;55.592;37.460;2023-07-29T09:26:22;6.38;;;4.57;;
58294;SDS011;45705;55.592;37.460;2023-07-29T09:28:52;5.43;;;4.88;;
58294;SDS011;45705;55.592;37.460;2023-07-29T09:31:24;6.45;;;4.75;;
58294;SDS011;45705;55.592;37.460;2023-07-29T09:36:23;8.10;;;6.13;;
58294;SDS011;45705;55.592;37.460;2023-07-29T09:38:56;8.38;;;5.85;;
58294;SDS011;45705;55.592;37.460;2023-07-29T09:41:22;12.85;;;6.30;;
58294;SDS011;45705;55.592;37.460;2023-07-29T09:43:55;10.15;;;6.72;;
58294;SDS011;45705;55.592;37.460;2023-07-29T09:46:23;11.43;;;5.95;;
58294;SDS011;45705;55.592;37.460;2023-07-29T09:48:56;10.65;;;6.00;;
58294;SDS011;45705;55.592;37.460;2023-07-29T09:51:22;6.75;;;5.85;;
58294;SDS011;45705;55.592;37.460;2023-07-29T09:53:49;9.85;;;5.88;;
58294;SDS011;45705;55.592;37.460;2023-07-29T09:56:16;8.90;;;6.15;;
58294;SDS011;45705;55.592;37.460;2023-07-29T09:58:45;9.85;;;5.90;;
58294;SDS011;45705;55.592;37.460;2023-07-29T10:01:13;10.43;;;5.93;;
58294;SDS011;45705;55.592;37.460;2023-07-29T10:03:39;8.27;;;5.63;;
58294;SDS011;45705;55.592;37.460;2023-07-29T10:06:06;8.90;;;6.32;;
58294;SDS011;45705;55.592;37.460;2023-07-29T10:08:33;8.13;;;6.22;;
58294;SDS011;45705;55.592;37.460;2023-07-29T10:11:06;8.63;;;5.75;;
58294;SDS011;45705;55.592;37.460;2023-07-29T10:13:33;7.95;;;6.35;;
58294;SDS011;45705;55.592;37.460;2023-07-29T10:15:59;11.35;;;6.90;;
58294;SDS011;45705;55.592;37.460;2023-07-29T10:18:32;8.75;;;6.82;;
58294;SDS011;45705;55.592;37.460;2023-07-29T10:20:59;8.93;;;7.25;;
58294;SDS011;45705;55.592;37.460;2023-07-29T10:23:26;11.18;;;7.18;;
58294;SDS011;45705;55.592;37.460;2023-07-29T10:25:57;12.25;;;6.80;;
58294;SDS011;45705;55.592;37.460;2023-07-29T10:28:26;9.88;;;5.82;;
58294;SDS011;45705;55.592;37.460;2023-07-29T10:30:56;7.72;;;6.28;;
58294;SDS011;45705;55.592;37.460;2023-07-29T10:33:22;7.60;;;6.63;;
58294;SDS011;45705;55.592;37.460;2023-07-29T10:35:48;10.93;;;6.07;;
58294;SDS011;45705;55.592;37.460;2023-07-29T10:38:15;6.57;;;5.70;;
58294;SDS011;45705;55.592;37.460;2023-07-29T10:40:45;8.77;;;5.60;;
58294;SDS011;45705;55.592;37.460;2023-07-29T10:43:15;10.30;;;6.03;;
58294;SDS011;45705;55.592;37.460;2023-07-29T10:45:57;8.43;;;6.65;;
58294;SDS011;45705;55.592;37.460;2023-07-29T10:48:56;12.20;;;7.32;;
58294;SDS011;45705;55.592;37.460;2023-07-29T10:51:26;9.82;;;7.10;;
58294;SDS011;45705;55.592;37.460;2023-07-29T10:53:59;12.25;;;8.10;;
58294;SDS011;45705;55.592;37.460;2023-07-29T10:56:28;8.55;;;6.65;;
58294;SDS011;45705;55.592;37.460;2023-07-29T10:58:58;12.50;;;7.72;;
58294;SDS011;45705;55.592;37.460;2023-07-29T11:01:28;9.23;;;7.07;;
58294;SDS011;45705;55.592;37.460;2023-07-29T11:14:59;11.07;;;7.35;;
58294;SDS011;45705;55.592;37.460;2023-07-29T11:17:30;10.68;;;7.20;;
58294;SDS011;45705;55.592;37.460;2023-07-29T11:19:59;10.70;;;6.38;;
58294;SDS011;45705;55.592;37.460;2023-07-29T11:22:27;8.63;;;5.87;;
58294;SDS011;45705;55.592;37.460;2023-07-29T11:24:53;8.02;;;5.05;;
58294;SDS011;45705;55.592;37.460;2023-07-29T11:27:19;7.00;;;5.78;;
58294;SDS011;45705;55.592;37.460;2023-07-29T11:29:45;10.65;;;6.88;;
58294;SDS011;45705;55.592;37.460;2023-07-29T11:32:12;8.65;;;6.63;;
58294;SDS011;45705;55.592;37.460;2023-07-29T11:34:38;7.22;;;6.45;;
58294;SDS011;45705;55.592;37.460;2023-07-29T11:37:05;9.30;;;5.40;;
58294;SDS011;45705;55.592;37.460;2023-07-29T11:39:32;8.07;;;6.07;;
58294;SDS011;45705;55.592;37.460;2023-07-29T11:42:04;6.72;;;5.45;;
58294;SDS011;45705;55.592;37.460;2023-07-29T11:44:30;8.82;;;5.22;;
58294;SDS011;45705;55.592;37.460;2023-07-29T11:46:56;8.45;;;4.65;;
58294;SDS011;45705;55.592;37.460;2023-07-29T11:49:22;9.25;;;4.90;;
58294;SDS011;45705;55.592;37.460;2023-07-29T11:51:47;8.70;;;5.63;;
58294;SDS011;45705;55.592;37.460;2023-07-29T11:54:13;9.27;;;5.65;;
58294;SDS011;45705;55.592;37.460;2023-07-29T11:56:40;10.60;;;5.82;;
58294;SDS011;45705;55.592;37.460;2023-07-29T11:59:06;6.93;;;4.70;;
58294;SDS011;45705;55.592;37.460;2023-07-29T12:01:32;6.88;;;5.30;;
58294;SDS011;45705;55.592;37.460;2023-07-29T12:03:58;8.80;;;5.65;;
58294;SDS011;45705;55.592;37.460;2023-07-29T12:06:25;7.30;;;5.65;;
58294;SDS011;45705;55.592;37.460;2023-07-29T12:08:51;10.90;;;5.38;;
58294;SDS011;45705;55.592;37.460;2023-07-29T12:11:17;8.57;;;6.10;;
58294;SDS011;45705;55.592;37.460;2023-07-29T12:13:43;9.57;;;5.82;;
58294;SDS011;45705;55.592;37.460;2023-07-29T12:16:09;8.90;;;6.47;;
58294;SDS011;45705;55.592;37.460;2023-07-29T12:18:41;11.65;;;6.53;;
58294;SDS011;45705;55.592;37.460;2023-07-29T12:21:07;9.90;;;7.15;;
58294;SDS011;45705;55.592;37.460;2023-07-29T12:23:32;9.95;;;6.43;;
58294;SDS011;45705;55.592;37.460;2023-07-29T12:25:59;13.43;;;6.57;;
58294;SDS011;45705;55.592;37.460;2023-07-29T12:28:25;8.48;;;5.85;;
58294;SDS011;45705;55.592;37.460;2023-07-29T12:30:54;10.20;;;5.93;;
58294;SDS011;45705;55.592;37.460;2023-07-29T12:33:31;7.88;;;5.57;;
58294;SDS011;45705;55.592;37.460;2023-07-29T12:35:57;8.20;;;4.65;;
58294;SDS011;45705;55.592;37.460;2023-07-29T12:38:25;9.15;;;5.40;;
58294;SDS011;45705;55.592;37.460;2023-07-29T12:43:17;6.45;;;4.22;;
58294;SDS011;45705;55.592;37.460;2023-07-29T12:45:43;6.10;;;4.03;;
58294;SDS011;45705;55.592;37.460;2023-07-29T12:48:09;5.55;;;3.55;;
58294;SDS011;45705;55.592;37.460;2023-07-29T12:50:36;7.22;;;3.78;;
58294;SDS011;45705;55.592;37.460;2023-07-29T12:53:06;10.10;;;3.55;;
58294;SDS011;45705;55.592;37.460;2023-07-29T12:55:33;8.68;;;4.00;;
58294;SDS011;45705;55.592;37.460;2023-07-29T12:57:59;8.63;;;4.40;;
58294;SDS011;45705;55.592;37.460;2023-07-29T13:00:26;6.97;;;5.30;;
58294;SDS011;45705;55.592;37.460;2023-07-29T13:02:52;10.80;;;4.70;;
58294;SDS011;45705;55.592;37.460;2023-07-29T13:05:17;8.00;;;4.10;;
58294;SDS011;45705;55.592;37.460;2023-07-29T13:07:43;7.95;;;3.70;;
58294;SDS011;45705;55.592;37.460;2023-07-29T13:10:09;8.30;;;4.13;;
58294;SDS011;45705;55.592;37.460;2023-07-29T13:12:36;10.88;;;4.38;;
58294;SDS011;45705;55.592;37.460;2023-07-29T13:15:02;6.13;;;3.83;;
58294;SDS011;45705;55.592;37.460;2023-07-29T13:17:29;9.43;;;4.40;;
58294;SDS011;45705;55.592;37.460;2023-07-29T13:19:55;5.85;;;3.95;;
58294;SDS011;45705;55.592;37.460;2023-07-29T13:22:21;6.13;;;4.10;;
58294;SDS011;45705;55.592;37.460;2023-07-29T13:24:47;8.30;;;4.60;;
58294;SDS011;45705;55.592;37.460;2023-07-29T13:27:12;10.90;;;3.70;;
58294;SDS011;45705;55.592;37.460;2023-07-29T13:29:39;8.50;;;4.93;;
58294;SDS011;45705;55.592;37.460;2023-07-29T13:32:05;8.02;;;5.78;;
58294;SDS011;45705;55.592;37.460;2023-07-29T13:34:31;8.52;;;5.57;;
58294;SDS011;45705;55.592;37.460;2023-07-29T13:36:57;12.70;;;4.57;;
58294;SDS011;45705;55.592;37.460;2023-07-29T13:39:23;7.70;;;4.38;;
58294;SDS011;45705;55.592;37.460;2023-07-29T13:41:49;8.43;;;3.88;;
58294;SDS011;45705;55.592;37.460;2023-07-29T13:44:14;6.40;;;3.65;;
58294;SDS011;45705;55.592;37.460;2023-07-29T13:46:40;5.25;;;3.58;;
58294;SDS011;45705;55.592;37.460;2023-07-29T13:49:06;7.78;;;3.40;;
58294;SDS011;45705;55.592;37.460;2023-07-29T13:51:31;4.57;;;3.42;;
58294;SDS011;45705;55.592;37.460;2023-07-29T13:53:57;8.73;;;4.93;;
58294;SDS011;45705;55.592;37.460;2023-07-29T13:56:23;10.68;;;4.40;;
58294;SDS011;45705;55.592;37.460;2023-07-29T13:58:49;8.23;;;4.85;;
58294;SDS011;45705;55.592;37.460;2023-07-29T14:01:14;7.47;;;4.03;;
58294;SDS011;45705;55.592;37.460;2023-07-29T14:03:40;7.07;;;3.47;;
58294;SDS011;45705;55.592;37.460;2023-07-29T14:06:06;5.20;;;3.33;;
58294;SDS011;45705;55.592;37.460;2023-07-29T14:08:32;11.02;;;2.90;;
58294;SDS011;45705;55.592;37.460;2023-07-29T14:10:58;9.45;;;4.45;;
58294;SDS011;45705;55.592;37.460;2023-07-29T14:13:23;11.65;;;4.30;;
58294;SDS011;45705;55.592;37.460;2023-07-29T14:15:49;11.27;;;4.35;;
58294;SDS011;45705;55.592;37.460;2023-07-29T14:18:15;7.35;;;4.28;;
58294;SDS011;45705;55.592;37.460;2023-07-29T14:20:41;9.10;;;3.83;;
58294;SDS011;45705;55.592;37.460;2023-07-29T14:23:06;13.23;;;5.97;;
58294;SDS011;45705;55.592;37.460;2023-07-29T14:25:32;12.57;;;5.20;;
58294;SDS011;45705;55.592;37.460;2023-07-29T14:27:58;9.65;;;5.70;;
58294;SDS011;45705;55.592;37.460;2023-07-29T14:30:23;10.73;;;4.80;;
58294;SDS011;45705;55.592;37.460;2023-07-29T14:32:49;6.35;;;3.83;;
58294;SDS011;45705;55.592;37.460;2023-07-29T14:35:15;5.68;;;3.75;;
58294;SDS011;45705;55.592;37.460;2023-07-29T14:37:40;8.27;;;3.88;;
58294;SDS011;45705;55.592;37.460;2023-07-29T14:40:06;9.57;;;4.18;;
58294;SDS011;45705;55.592;37.460;2023-07-29T14:42:32;7.60;;;3.65;;
58294;SDS011;45705;55.592;37.460;2023-07-29T14:44:58;10.80;;;3.60;;
58294;SDS011;45705;55.592;37.460;2023-07-29T14:47:24;9.75;;;4.13;;
58294;SDS011;45705;55.592;37.460;2023-07-29T14:49:49;4.78;;;3.55;;
58294;SDS011;45705;55.592;37.460;2023-07-29T14:52:15;7.22;;;3.47;;
58294;SDS011;45705;55.592;37.460;2023-07-29T14:54:41;5.93;;;4.00;;
58294;SDS011;45705;55.592;37.460;2023-07-29T14:57:07;8.18;;;3.78;;